Trenton, Iowa
Current Conditions -  °F | °C
As of 9:55 AM on Wednesday 28 Jan 2015 (Local Time) from KMPZ Reporting Station
Clear Clear  
Wind Chill: 22°   Ceiling: Unl
Heat Index: 32°   Visibility: 7mi
Dew Point: 27°   Wind: 16mph
Humidity: 80%   Direction: 140°SE
Pressure: 30.08"   Gusts: 25mph
Location:  40.9915°N, 91.5765°W
Report Text: KMPZ 281555Z AUTO 14014G22KT 7SM CLR 00/M03 A3008 RMK AO2 T00021029
Loading
Personal Weather Stations






























Interactive Weather Map New forecast layout! Learn more

10-Day Weather Forecast

Advertisements
Track Severe Weather on mobile